sensor_id;sensor_type;location;lat;lon;timestamp;P1;P2;P0
46044;PMS7003;31781;54.094;13.428;2023-07-31T00:01:48;1.40;1.00;1.00
46044;PMS7003;31781;54.094;13.428;2023-07-31T00:03:49;1.00;1.00;1.00
46044;PMS7003;31781;54.094;13.428;2023-07-31T00:05:51;1.00;1.00;0.60
46044;PMS7003;31781;54.094;13.428;2023-07-31T00:07:53;1.00;1.00;1.00
46044;PMS7003;31781;54.094;13.428;2023-07-31T00:09:55;1.80;0.60;0.60
46044;PMS7003;31781;54.094;13.428;2023-07-31T00:11:58;1.00;1.00;0.00
46044;PMS7003;31781;54.094;13.428;2023-07-31T00:14:00;0.20;0.20;0.00
46044;PMS7003;31781;54.094;13.428;2023-07-31T00:16:01;0.40;0.40;0.00
46044;PMS7003;31781;54.094;13.428;2023-07-31T00:18:03;0.00;0.00;0.00
46044;PMS7003;31781;54.094;13.428;2023-07-31T00:20:05;1.00;1.00;1.00
46044;PMS7003;31781;54.094;13.428;2023-07-31T00:22:08;0.20;0.20;0.20
46044;PMS7003;31781;54.094;13.428;2023-07-31T00:24:09;0.00;0.00;0.00
46044;PMS7003;31781;54.094;13.428;2023-07-31T00:26:11;1.00;1.00;1.00
46044;PMS7003;31781;54.094;13.428;2023-07-31T00:28:14;0.00;0.00;0.00
46044;PMS7003;31781;54.094;13.428;2023-07-31T00:30:16;1.80;0.00;0.00
46044;PMS7003;31781;54.094;13.428;2023-07-31T00:32:18;0.60;0.60;0.00
46044;PMS7003;31781;54.094;13.428;2023-07-31T00:34:19;0.00;0.00;0.00
46044;PMS7003;31781;54.094;13.428;2023-07-31T00:36:21;0.00;0.00;0.00
46044;PMS7003;31781;54.094;13.428;2023-07-31T00:38:23;0.00;0.00;0.00
46044;PMS7003;31781;54.094;13.428;2023-07-31T00:40:25;0.00;0.00;0.00
46044;PMS7003;31781;54.094;13.428;2023-07-31T00:42:27;0.00;0.00;0.00
46044;PMS7003;31781;54.094;13.428;2023-07-31T00:44:29;1.00;1.00;0.60
46044;PMS7003;31781;54.094;13.428;2023-07-31T00:46:31;0.00;0.00;0.00
46044;PMS7003;31781;54.094;13.428;2023-07-31T00:48:33;0.80;0.00;0.00
46044;PMS7003;31781;54.094;13.428;2023-07-31T00:50:36;1.40;1.20;1.00
46044;PMS7003;31781;54.094;13.428;2023-07-31T00:52:37;0.00;0.00;0.00
46044;PMS7003;31781;54.094;13.428;2023-07-31T00:54:39;0.00;0.00;0.00
46044;PMS7003;31781;54.094;13.428;2023-07-31T00:56:41;1.00;1.00;0.20
46044;PMS7003;31781;54.094;13.428;2023-07-31T00:58:45;1.00;1.00;0.00
46044;PMS7003;31781;54.094;13.428;2023-07-31T01:00:49;0.00;0.00;0.00
46044;PMS7003;31781;54.094;13.428;2023-07-31T01:02:50;0.00;0.00;0.00
46044;PMS7003;31781;54.094;13.428;2023-07-31T01:04:53;0.00;0.00;0.00
46044;PMS7003;31781;54.094;13.428;2023-07-31T01:06:55;0.00;0.00;0.00
46044;PMS7003;31781;54.094;13.428;2023-07-31T01:09:06;0.20;0.20;0.00
46044;PMS7003;31781;54.094;13.428;2023-07-31T01:11:14;0.00;0.00;0.00
46044;PMS7003;31781;54.094;13.428;2023-07-31T01:13:18;0.00;0.00;0.00
46044;PMS7003;31781;54.094;13.428;2023-07-31T01:15:20;0.80;0.80;0.00
46044;PMS7003;31781;54.094;13.428;2023-07-31T01:17:24;1.60;0.00;0.00
46044;PMS7003;31781;54.094;13.428;2023-07-31T01:19:26;0.00;0.00;0.00
46044;PMS7003;31781;54.094;13.428;2023-07-31T01:21:41;0.00;0.00;0.00
46044;PMS7003;31781;54.094;13.428;2023-07-31T01:24:08;0.00;0.00;0.00
46044;PMS7003;31781;54.094;13.428;2023-07-31T01:26:24;0.00;0.00;0.00
46044;PMS7003;31781;54.094;13.428;2023-07-31T01:28:33;0.20;0.20;0.20
46044;PMS7003;31781;54.094;13.428;2023-07-31T01:30:43;2.00;0.00;0.00
46044;PMS7003;31781;54.094;13.428;2023-07-31T01:32:49;0.40;0.40;0.00
46044;PMS7003;31781;54.094;13.428;2023-07-31T01:34:52;0.00;0.00;0.00
46044;PMS7003;31781;54.094;13.428;2023-07-31T01:36:55;0.00;0.00;0.00
46044;PMS7003;31781;54.094;13.428;2023-07-31T01:38:58;0.80;0.80;0.80
46044;PMS7003;31781;54.094;13.428;2023-07-31T01:41:00;1.00;1.00;1.00
46044;PMS7003;31781;54.094;13.428;2023-07-31T01:43:03;0.60;0.60;0.60
46044;PMS7003;31781;54.094;13.428;2023-07-31T01:45:05;0.00;0.00;0.00
46044;PMS7003;31781;54.094;13.428;2023-07-31T01:47:07;1.40;0.00;0.00
46044;PMS7003;31781;54.094;13.428;2023-07-31T01:49:09;0.00;0.00;0.00
46044;PMS7003;31781;54.094;13.428;2023-07-31T01:51:11;0.40;0.40;0.00
46044;PMS7003;31781;54.094;13.428;2023-07-31T01:53:13;1.00;1.00;0.60
46044;PMS7003;31781;54.094;13.428;2023-07-31T01:55:14;0.00;0.00;0.00
46044;PMS7003;31781;54.094;13.428;2023-07-31T01:57:16;0.00;0.00;0.00
46044;PMS7003;31781;54.094;13.428;2023-07-31T01:59:19;0.00;0.00;0.00
46044;PMS7003;31781;54.094;13.428;2023-07-31T02:01:21;0.00;0.00;0.00
46044;PMS7003;31781;54.094;13.428;2023-07-31T02:03:23;1.40;0.60;0.40
46044;PMS7003;31781;54.094;13.428;2023-07-31T02:05:25;1.00;1.00;0.00
46044;PMS7003;31781;54.094;13.428;2023-07-31T02:07:26;0.40;0.40;0.00
46044;PMS7003;31781;54.094;13.428;2023-07-31T02:09:28;0.00;0.00;0.00
46044;PMS7003;31781;54.094;13.428;2023-07-31T02:11:29;0.80;0.00;0.00
46044;PMS7003;31781;54.094;13.428;2023-07-31T02:13:32;0.00;0.00;0.00
46044;PMS7003;31781;54.094;13.428;2023-07-31T02:15:35;0.00;0.00;0.00
46044;PMS7003;31781;54.094;13.428;2023-07-31T02:17:38;0.00;0.00;0.00
46044;PMS7003;31781;54.094;13.428;2023-07-31T02:19:40;1.40;0.60;0.00
46044;PMS7003;31781;54.094;13.428;2023-07-31T02:21:41;0.00;0.00;0.00
46044;PMS7003;31781;54.094;13.428;2023-07-31T02:23:43;0.00;0.00;0.00
46044;PMS7003;31781;54.094;13.428;2023-07-31T02:25:45;0.00;0.00;0.00
46044;PMS7003;31781;54.094;13.428;2023-07-31T02:27:48;0.00;0.00;0.00
46044;PMS7003;31781;54.094;13.428;2023-07-31T02:29:49;0.00;0.00;0.00
46044;PMS7003;31781;54.094;13.428;2023-07-31T02:31:52;0.60;0.60;0.60
46044;PMS7003;31781;54.094;13.428;2023-07-31T02:33:54;0.00;0.00;0.00
46044;PMS7003;31781;54.094;13.428;2023-07-31T02:35:56;0.00;0.00;0.00
46044;PMS7003;31781;54.094;13.428;2023-07-31T02:37:58;0.40;0.20;0.20
46044;PMS7003;31781;54.094;13.428;2023-07-31T02:39:59;0.00;0.00;0.00
46044;PMS7003;31781;54.094;13.428;2023-07-31T02:42:02;0.00;0.00;0.00
46044;PMS7003;31781;54.094;13.428;2023-07-31T02:44:04;1.00;1.00;0.00
46044;PMS7003;31781;54.094;13.428;2023-07-31T02:46:05;0.00;0.00;0.00
46044;PMS7003;31781;54.094;13.428;2023-07-31T02:48:08;1.00;1.00;0.20
46044;PMS7003;31781;54.094;13.428;2023-07-31T02:50:10;0.00;0.00;0.00
46044;PMS7003;31781;54.094;13.428;2023-07-31T02:52:12;0.40;0.40;0.20
46044;PMS7003;31781;54.094;13.428;2023-07-31T02:54:13;0.40;0.40;0.40
46044;PMS7003;31781;54.094;13.428;2023-07-31T02:56:15;1.00;1.00;0.00
46044;PMS7003;31781;54.094;13.428;2023-07-31T02:58:17;0.00;0.00;0.00
46044;PMS7003;31781;54.094;13.428;2023-07-31T03:00:19;1.00;1.00;1.00
46044;PMS7003;31781;54.094;13.428;2023-07-31T03:02:21;1.60;0.00;0.00
46044;PMS7003;31781;54.094;13.428;2023-07-31T03:04:24;1.00;1.00;1.00
46044;PMS7003;31781;54.094;13.428;2023-07-31T03:06:25;0.80;0.80;0.80
46044;PMS7003;31781;54.094;13.428;2023-07-31T03:08:27;0.60;0.60;0.00
46044;PMS7003;31781;54.094;13.428;2023-07-31T03:10:29;1.80;0.00;0.00
46044;PMS7003;31781;54.094;13.428;2023-07-31T03:12:31;0.00;0.00;0.00
46044;PMS7003;31781;54.094;13.428;2023-07-31T03:14:33;0.40;0.40;0.00
46044;PMS7003;31781;54.094;13.428;2023-07-31T03:16:34;2.00;0.00;0.00
46044;PMS7003;31781;54.094;13.428;2023-07-31T03:18:36;0.50;0.50;0.50
46044;PMS7003;31781;54.094;13.428;2023-07-31T03:20:42;0.00;0.00;0.00
46044;PMS7003;31781;54.094;13.428;2023-07-31T03:22:44;0.00;0.00;0.00
46044;PMS7003;31781;54.094;13.428;2023-07-31T03:24:46;0.00;0.00;0.00
46044;PMS7003;31781;54.094;13.428;2023-07-31T03:26:48;0.00;0.00;0.00
46044;PMS7003;31781;54.094;13.428;2023-07-31T03:28:49;1.00;1.00;1.00
46044;PMS7003;31781;54.094;13.428;2023-07-31T03:30:51;0.00;0.00;0.00
46044;PMS7003;31781;54.094;13.428;2023-07-31T03:32:53;0.00;0.00;0.00
46044;PMS7003;31781;54.094;13.428;2023-07-31T03:34:55;1.25;1.00;0.50
46044;PMS7003;31781;54.094;13.428;2023-07-31T03:36:58;2.00;1.00;0.50
46044;PMS7003;31781;54.094;13.428;2023-07-31T03:38:59;0.20;0.20;0.20
46044;PMS7003;31781;54.094;13.428;2023-07-31T03:41:01;0.00;0.00;0.00
46044;PMS7003;31781;54.094;13.428;2023-07-31T03:43:03;0.00;0.00;0.00
46044;PMS7003;31781;54.094;13.428;2023-07-31T03:45:07;0.40;0.40;0.40
46044;PMS7003;31781;54.094;13.428;2023-07-31T03:47:10;0.00;0.00;0.00
46044;PMS7003;31781;54.094;13.428;2023-07-31T03:49:12;0.00;0.00;0.00
46044;PMS7003;31781;54.094;13.428;2023-07-31T03:51:13;0.75;0.75;0.75
46044;PMS7003;31781;54.094;13.428;2023-07-31T03:53:16;0.00;0.00;0.00
46044;PMS7003;31781;54.094;13.428;2023-07-31T03:55:18;1.00;1.00;1.00
46044;PMS7003;31781;54.094;13.428;2023-07-31T03:57:20;2.00;2.00;1.00
46044;PMS7003;31781;54.094;13.428;2023-07-31T03:59:21;3.60;1.00;1.00
46044;PMS7003;31781;54.094;13.428;2023-07-31T04:01:23;0.20;0.20;0.20
46044;PMS7003;31781;54.094;13.428;2023-07-31T04:03:25;1.00;1.00;1.00
46044;PMS7003;31781;54.094;13.428;2023-07-31T04:05:27;0.00;0.00;0.00
46044;PMS7003;31781;54.094;13.428;2023-07-31T04:07:31;1.50;1.50;1.50
46044;PMS7003;31781;54.094;13.428;2023-07-31T04:09:34;0.40;0.40;0.00
46044;PMS7003;31781;54.094;13.428;2023-07-31T04:11:36;0.75;0.00;0.00
46044;PMS7003;31781;54.094;13.428;2023-07-31T04:13:38;1.00;1.00;1.00
46044;PMS7003;31781;54.094;13.428;2023-07-31T04:15:40;1.00;1.00;1.00
46044;PMS7003;31781;54.094;13.428;2023-07-31T04:17:41;0.00;0.00;0.00
46044;PMS7003;31781;54.094;13.428;2023-07-31T04:19:43;1.00;1.00;1.00
46044;PMS7003;31781;54.094;13.428;2023-07-31T04:21:45;1.00;1.00;1.00
46044;PMS7003;31781;54.094;13.428;2023-07-31T04:23:49;1.00;1.00;1.00
46044;PMS7003;31781;54.094;13.428;2023-07-31T04:25:52;1.60;1.60;1.40
46044;PMS7003;31781;54.094;13.428;2023-07-31T04:27:54;1.00;1.00;1.00
46044;PMS7003;31781;54.094;13.428;2023-07-31T04:29:56;2.00;2.00;1.20
46044;PMS7003;31781;54.094;13.428;2023-07-31T04:31:58;3.60;1.20;1.00
46044;PMS7003;31781;54.094;13.428;2023-07-31T04:33:59;1.00;1.00;1.00
46044;PMS7003;31781;54.094;13.428;2023-07-31T04:36:01;1.00;1.00;0.80
46044;PMS7003;31781;54.094;13.428;2023-07-31T04:38:03;2.00;2.00;2.00
46044;PMS7003;31781;54.094;13.428;2023-07-31T04:40:05;2.00;2.00;2.00
46044;PMS7003;31781;54.094;13.428;2023-07-31T04:42:09;1.80;1.80;1.40
46044;PMS7003;31781;54.094;13.428;2023-07-31T04:44:10;1.20;1.20;1.00
46044;PMS7003;31781;54.094;13.428;2023-07-31T04:46:12;2.00;2.00;2.00
46044;PMS7003;31781;54.094;13.428;2023-07-31T04:48:14;0.00;0.00;0.00
46044;PMS7003;31781;54.094;13.428;2023-07-31T04:50:16;1.40;1.40;1.20
46044;PMS7003;31781;54.094;13.428;2023-07-31T04:52:17;3.00;3.00;2.00
46044;PMS7003;31781;54.094;13.428;2023-07-31T04:54:19;2.00;2.00;2.00
46044;PMS7003;31781;54.094;13.428;2023-07-31T04:56:21;2.80;1.80;1.80
46044;PMS7003;31781;54.094;13.428;2023-07-31T04:58:24;2.00;2.00;1.80
46044;PMS7003;31781;54.094;13.428;2023-07-31T05:00:25;2.00;2.00;2.00
46044;PMS7003;31781;54.094;13.428;2023-07-31T05:02:27;1.00;1.00;1.00
46044;PMS7003;31781;54.094;13.428;2023-07-31T05:04:29;1.40;1.40;1.40
46044;PMS7003;31781;54.094;13.428;2023-07-31T05:06:30;1.00;1.00;1.00
46044;PMS7003;31781;54.094;13.428;2023-07-31T05:08:32;2.80;2.80;2.00
46044;PMS7003;31781;54.094;13.428;2023-07-31T05:10:33;1.40;1.40;1.00
46044;PMS7003;31781;54.094;13.428;2023-07-31T05:12:35;5.00;3.00;3.00
46044;PMS7003;31781;54.094;13.428;2023-07-31T05:14:38;2.00;2.00;1.00
46044;PMS7003;31781;54.094;13.428;2023-07-31T05:16:40;2.80;2.00;1.80
46044;PMS7003;31781;54.094;13.428;2023-07-31T05:18:42;3.40;2.00;2.00
46044;PMS7003;31781;54.094;13.428;2023-07-31T05:20:44;2.40;2.40;2.00
46044;PMS7003;31781;54.094;13.428;2023-07-31T05:22:46;0.00;0.00;0.00
46044;PMS7003;31781;54.094;13.428;2023-07-31T05:24:48;3.00;3.00;2.80
46044;PMS7003;31781;54.094;13.428;2023-07-31T05:26:50;1.60;1.60;1.60
46044;PMS7003;31781;54.094;13.428;2023-07-31T05:28:52;4.60;2.00;1.80
46044;PMS7003;31781;54.094;13.428;2023-07-31T05:30:59;2.00;2.00;2.00
46044;PMS7003;31781;54.094;13.428;2023-07-31T05:33:01;2.60;2.60;2.20
46044;PMS7003;31781;54.094;13.428;2023-07-31T05:35:03;4.00;2.40;2.00
46044;PMS7003;31781;54.094;13.428;2023-07-31T05:37:05;4.00;3.00;2.40
46044;PMS7003;31781;54.094;13.428;2023-07-31T05:39:08;0.80;0.80;0.00
46044;PMS7003;31781;54.094;13.428;2023-07-31T05:41:13;2.20;2.20;2.00
46044;PMS7003;31781;54.094;13.428;2023-07-31T05:43:15;1.60;1.60;1.40
46044;PMS7003;31781;54.094;13.428;2023-07-31T05:45:18;3.20;2.40;1.80
46044;PMS7003;31781;54.094;13.428;2023-07-31T05:47:22;2.20;2.20;2.00
46044;PMS7003;31781;54.094;13.428;2023-07-31T05:49:23;2.00;2.00;2.00
46044;PMS7003;31781;54.094;13.428;2023-07-31T05:51:25;2.00;2.00;2.00
46044;PMS7003;31781;54.094;13.428;2023-07-31T05:53:27;2.40;2.40;2.20
46044;PMS7003;31781;54.094;13.428;2023-07-31T05:55:29;3.00;3.00;2.20
46044;PMS7003;31781;54.094;13.428;2023-07-31T05:57:30;3.20;3.00;2.60
46044;PMS7003;31781;54.094;13.428;2023-07-31T05:59:32;2.40;2.40;2.00
46044;PMS7003;31781;54.094;13.428;2023-07-31T06:01:33;3.20;3.20;2.80
46044;PMS7003;31781;54.094;13.428;2023-07-31T06:03:37;2.00;2.00;1.40
46044;PMS7003;31781;54.094;13.428;2023-07-31T06:05:38;2.00;2.00;2.00
46044;PMS7003;31781;54.094;13.428;2023-07-31T06:07:40;2.00;2.00;2.00
46044;PMS7003;31781;54.094;13.428;2023-07-31T06:09:42;3.20;3.20;2.60
46044;PMS7003;31781;54.094;13.428;2023-07-31T06:11:43;2.80;2.80;2.00
46044;PMS7003;31781;54.094;13.428;2023-07-31T06:13:45;3.80;3.40;2.80
46044;PMS7003;31781;54.094;13.428;2023-07-31T06:15:47;2.80;2.80;2.20
46044;PMS7003;31781;54.094;13.428;2023-07-31T06:17:49;1.80;1.80;1.80
46044;PMS7003;31781;54.094;13.428;2023-07-31T06:19:52;2.40;2.40;1.80
46044;PMS7003;31781;54.094;13.428;2023-07-31T06:21:53;2.00;2.00;1.80
46044;PMS7003;31781;54.094;13.428;2023-07-31T06:23:55;2.00;2.00;1.80
46044;PMS7003;31781;54.094;13.428;2023-07-31T06:25:57;2.00;2.00;2.00
46044;PMS7003;31781;54.094;13.428;2023-07-31T06:27:58;3.80;2.20;1.80
46044;PMS7003;31781;54.094;13.428;2023-07-31T06:30:00;2.00;2.00;1.80
46044;PMS7003;31781;54.094;13.428;2023-07-31T06:32:02;3.40;2.80;2.60
46044;PMS7003;31781;54.094;13.428;2023-07-31T06:34:04;2.00;2.00;2.00
46044;PMS7003;31781;54.094;13.428;2023-07-31T06:36:07;4.20;2.40;1.60
46044;PMS7003;31781;54.094;13.428;2023-07-31T06:38:09;3.60;2.00;1.40
46044;PMS7003;31781;54.094;13.428;2023-07-31T06:40:11;2.00;2.00;2.00
46044;PMS7003;31781;54.094;13.428;2023-07-31T06:42:12;1.80;1.80;1.40
46044;PMS7003;31781;54.094;13.428;2023-07-31T06:44:14;1.60;1.60;1.60
46044;PMS7003;31781;54.094;13.428;2023-07-31T06:46:16;3.40;1.80;1.60
46044;PMS7003;31781;54.094;13.428;2023-07-31T06:48:18;2.60;2.60;2.00
46044;PMS7003;31781;54.094;13.428;2023-07-31T06:50:19;2.20;2.20;2.00
46044;PMS7003;31781;54.094;13.428;2023-07-31T06:52:22;1.40;0.80;0.80
46044;PMS7003;31781;54.094;13.428;2023-07-31T06:54:24;3.00;3.00;2.40
46044;PMS7003;31781;54.094;13.428;2023-07-31T06:56:25;2.40;2.20;1.20
46044;PMS7003;31781;54.094;13.428;2023-07-31T06:58:27;3.60;2.20;2.00
46044;PMS7003;31781;54.094;13.428;2023-07-31T07:00:29;3.60;3.60;2.20
46044;PMS7003;31781;54.094;13.428;2023-07-31T07:02:31;3.80;2.40;1.80
46044;PMS7003;31781;54.094;13.428;2023-07-31T07:04:33;2.40;2.40;2.00
46044;PMS7003;31781;54.094;13.428;2023-07-31T07:06:34;2.80;2.80;2.80
46044;PMS7003;31781;54.094;13.428;2023-07-31T07:08:37;2.20;2.20;1.40
46044;PMS7003;31781;54.094;13.428;2023-07-31T07:10:39;2.80;2.80;2.40
46044;PMS7003;31781;54.094;13.428;2023-07-31T07:12:41;2.60;2.60;1.80
46044;PMS7003;31781;54.094;13.428;2023-07-31T07:14:42;1.80;1.80;1.80
46044;PMS7003;31781;54.094;13.428;2023-07-31T07:16:44;2.40;2.40;2.00
46044;PMS7003;31781;54.094;13.428;2023-07-31T07:18:46;1.60;1.60;0.80
46044;PMS7003;31781;54.094;13.428;2023-07-31T07:21:03;2.60;2.60;2.00
46044;PMS7003;31781;54.094;13.428;2023-07-31T07:23:04;2.80;2.80;1.80
46044;PMS7003;31781;54.094;13.428;2023-07-31T07:25:08;3.40;2.80;1.80
46044;PMS7003;31781;54.094;13.428;2023-07-31T07:27:10;2.40;2.40;2.00
46044;PMS7003;31781;54.094;13.428;2023-07-31T07:29:12;4.40;2.40;2.20
46044;PMS7003;31781;54.094;13.428;2023-07-31T07:31:13;2.80;2.80;2.80
46044;PMS7003;31781;54.094;13.428;2023-07-31T07:33:15;1.00;1.00;1.00
46044;PMS7003;31781;54.094;13.428;2023-07-31T07:35:16;2.40;2.40;1.80
46044;PMS7003;31781;54.094;13.428;2023-07-31T07:37:18;2.60;1.80;1.80
46044;PMS7003;31781;54.094;13.428;2023-07-31T07:39:20;4.00;3.60;2.80
46044;PMS7003;31781;54.094;13.428;2023-07-31T07:41:23;3.00;2.80;2.40
46044;PMS7003;31781;54.094;13.428;2023-07-31T07:43:25;4.20;2.40;2.00
46044;PMS7003;31781;54.094;13.428;2023-07-31T07:45:26;2.00;2.00;1.80
46044;PMS7003;31781;54.094;13.428;2023-07-31T07:47:28;2.00;2.00;1.80
46044;PMS7003;31781;54.094;13.428;2023-07-31T07:49:30;1.20;1.00;1.00
46044;PMS7003;31781;54.094;13.428;2023-07-31T07:51:32;2.60;2.60;2.40
46044;PMS7003;31781;54.094;13.428;2023-07-31T07:53:33;3.40;3.40;2.40
46044;PMS7003;31781;54.094;13.428;2023-07-31T07:55:35;2.60;2.60;2.20
46044;PMS7003;31781;54.094;13.428;2023-07-31T07:57:38;1.00;1.00;1.00
46044;PMS7003;31781;54.094;13.428;2023-07-31T07:59:40;2.00;2.00;1.60
46044;PMS7003;31781;54.094;13.428;2023-07-31T08:01:41;0.25;0.25;0.25
46044;PMS7003;31781;54.094;13.428;2023-07-31T08:03:43;2.00;2.00;1.80
46044;PMS7003;31781;54.094;13.428;2023-07-31T08:05:45;1.40;1.40;1.00
46044;PMS7003;31781;54.094;13.428;2023-07-31T08:07:46;8.60;4.60;3.00
46044;PMS7003;31781;54.094;13.428;2023-07-31T08:09:48;1.60;1.60;1.20
46044;PMS7003;31781;54.094;13.428;2023-07-31T08:11:50;2.00;2.00;2.00
46044;PMS7003;31781;54.094;13.428;2023-07-31T08:13:53;1.60;1.60;1.60
46044;PMS7003;31781;54.094;13.428;2023-07-31T08:15:54;2.00;2.00;1.60
46044;PMS7003;31781;54.094;13.428;2023-07-31T08:17:56;1.60;1.60;1.60
46044;PMS7003;31781;54.094;13.428;2023-07-31T08:19:58;1.40;1.40;1.00
46044;PMS7003;31781;54.094;13.428;2023-07-31T08:22:00;1.80;1.80;1.60
46044;PMS7003;31781;54.094;13.428;2023-07-31T08:24:01;1.00;1.00;1.00
46044;PMS7003;31781;54.094;13.428;2023-07-31T08:26:03;1.00;1.00;1.00
46044;PMS7003;31781;54.094;13.428;2023-07-31T08:28:05;1.50;1.00;1.00
46044;PMS7003;31781;54.094;13.428;2023-07-31T08:30:10;1.75;1.75;1.50
46044;PMS7003;31781;54.094;13.428;2023-07-31T08:32:13;1.00;1.00;1.00
46044;PMS7003;31781;54.094;13.428;2023-07-31T08:34:14;2.00;2.00;1.00
46044;PMS7003;31781;54.094;13.428;2023-07-31T08:36:16;3.00;1.00;1.00
46044;PMS7003;31781;54.094;13.428;2023-07-31T08:38:18;1.00;1.00;1.00
46044;PMS7003;31781;54.094;13.428;2023-07-31T08:40:19;1.00;1.00;1.00
46044;PMS7003;31781;54.094;13.428;2023-07-31T08:42:21;1.50;1.50;1.25
46044;PMS7003;31781;54.094;13.428;2023-07-31T08:44:23;1.50;1.50;1.00
46044;PMS7003;31781;54.094;13.428;2023-07-31T08:46:26;1.00;1.00;1.00
46044;PMS7003;31781;54.094;13.428;2023-07-31T08:48:28;0.25;0.25;0.25
46044;PMS7003;31781;54.094;13.428;2023-07-31T08:50:32;1.75;1.75;1.00
46044;PMS7003;31781;54.094;13.428;2023-07-31T08:52:34;2.25;2.25;1.25
46044;PMS7003;31781;54.094;13.428;2023-07-31T08:54:36;1.00;1.00;1.00
46044;PMS7003;31781;54.094;13.428;2023-07-31T08:56:38;0.25;0.25;0.25
46044;PMS7003;31781;54.094;13.428;2023-07-31T08:58:42;1.00;1.00;1.00
46044;PMS7003;31781;54.094;13.428;2023-07-31T09:00:45;2.00;1.00;1.00
46044;PMS7003;31781;54.094;13.428;2023-07-31T09:02:51;2.25;0.00;0.00
46044;PMS7003;31781;54.094;13.428;2023-07-31T09:04:57;1.00;1.00;1.00
46044;PMS7003;31781;54.094;13.428;2023-07-31T09:06:59;1.00;1.00;0.75
46044;PMS7003;31781;54.094;13.428;2023-07-31T09:09:02;0.00;0.00;0.00
46044;PMS7003;31781;54.094;13.428;2023-07-31T09:11:04;3.00;0.25;0.25
46044;PMS7003;31781;54.094;13.428;2023-07-31T09:13:06;1.00;1.00;1.00
46044;PMS7003;31781;54.094;13.428;2023-07-31T09:15:11;0.00;0.00;0.00
46044;PMS7003;31781;54.094;13.428;2023-07-31T09:17:32;0.00;0.00;0.00
46044;PMS7003;31781;54.094;13.428;2023-07-31T09:19:36;1.00;1.00;1.00
46044;PMS7003;31781;54.094;13.428;2023-07-31T09:21:42;0.00;0.00;0.00
46044;PMS7003;31781;54.094;13.428;2023-07-31T09:23:49;0.75;0.75;0.25
46044;PMS7003;31781;54.094;13.428;2023-07-31T09:25:51;0.75;0.75;0.00
46044;PMS7003;31781;54.094;13.428;2023-07-31T09:27:53;0.75;0.75;0.75
46044;PMS7003;31781;54.094;13.428;2023-07-31T09:29:58;0.00;0.00;0.00
46044;PMS7003;31781;54.094;13.428;2023-07-31T09:32:00;1.00;1.00;0.50
46044;PMS7003;31781;54.094;13.428;2023-07-31T09:34:02;0.00;0.00;0.00
46044;PMS7003;31781;54.094;13.428;2023-07-31T09:36:05;0.50;0.50;0.00
46044;PMS7003;31781;54.094;13.428;2023-07-31T09:38:07;0.00;0.00;0.00
46044;PMS7003;31781;54.094;13.428;2023-07-31T09:40:11;0.00;0.00;0.00
46044;PMS7003;31781;54.094;13.428;2023-07-31T09:42:26;0.25;0.25;0.00
46044;PMS7003;31781;54.094;13.428;2023-07-31T09:44:37;1.00;1.00;1.00
46044;PMS7003;31781;54.094;13.428;2023-07-31T09:46:40;0.00;0.00;0.00
46044;PMS7003;31781;54.094;13.428;2023-07-31T09:48:42;3.00;2.00;1.00
46044;PMS7003;31781;54.094;13.428;2023-07-31T09:50:45;0.00;0.00;0.00
46044;PMS7003;31781;54.094;13.428;2023-07-31T09:52:49;0.00;0.00;0.00
46044;PMS7003;31781;54.094;13.428;2023-07-31T09:54:52;0.00;0.00;0.00
46044;PMS7003;31781;54.094;13.428;2023-07-31T09:56:53;0.50;0.50;0.25
46044;PMS7003;31781;54.094;13.428;2023-07-31T09:58:55;1.00;1.00;1.00
46044;PMS7003;31781;54.094;13.428;2023-07-31T10:00:57;1.00;1.00;0.75
46044;PMS7003;31781;54.094;13.428;2023-07-31T10:03:00;1.00;1.00;1.00
46044;PMS7003;31781;54.094;13.428;2023-07-31T10:05:05;0.25;0.25;0.25
46044;PMS7003;31781;54.094;13.428;2023-07-31T10:07:08;0.00;0.00;0.00
46044;PMS7003;31781;54.094;13.428;2023-07-31T10:09:11;1.00;1.00;1.00
46044;PMS7003;31781;54.094;13.428;2023-07-31T10:11:16;2.00;2.00;2.00
46044;PMS7003;31781;54.094;13.428;2023-07-31T10:13:18;0.50;0.50;0.50
46044;PMS7003;31781;54.094;13.428;2023-07-31T10:15:21;1.75;1.00;1.00
46044;PMS7003;31781;54.094;13.428;2023-07-31T10:17:24;1.00;1.00;1.00
46044;PMS7003;31781;54.094;13.428;2023-07-31T10:19:27;1.00;1.00;0.25
46044;PMS7003;31781;54.094;13.428;2023-07-31T10:21:31;1.75;0.75;0.75
46044;PMS7003;31781;54.094;13.428;2023-07-31T10:23:33;1.00;1.00;1.00
46044;PMS7003;31781;54.094;13.428;2023-07-31T10:25:36;1.00;1.00;1.00
46044;PMS7003;31781;54.094;13.428;2023-07-31T10:27:39;1.00;1.00;1.00
46044;PMS7003;31781;54.094;13.428;2023-07-31T10:29:41;1.00;1.00;1.00
46044;PMS7003;31781;54.094;13.428;2023-07-31T10:31:45;1.00;1.00;1.00
46044;PMS7003;31781;54.094;13.428;2023-07-31T10:33:48;1.25;1.25;1.00
46044;PMS7003;31781;54.094;13.428;2023-07-31T10:35:50;1.00;1.00;1.00
46044;PMS7003;31781;54.094;13.428;2023-07-31T10:37:52;0.00;0.00;0.00
46044;PMS7003;31781;54.094;13.428;2023-07-31T10:39:55;0.50;0.50;0.50
46044;PMS7003;31781;54.094;13.428;2023-07-31T10:41:59;1.25;1.25;1.00
46044;PMS7003;31781;54.094;13.428;2023-07-31T10:44:01;1.00;1.00;1.00
46044;PMS7003;31781;54.094;13.428;2023-07-31T10:46:06;1.00;1.00;1.00
46044;PMS7003;31781;54.094;13.428;2023-07-31T10:48:12;1.25;1.25;1.00
46044;PMS7003;31781;54.094;13.428;2023-07-31T10:50:18;1.00;1.00;1.00
46044;PMS7003;31781;54.094;13.428;2023-07-31T10:52:22;1.00;1.00;1.00
46044;PMS7003;31781;54.094;13.428;2023-07-31T10:54:27;1.00;1.00;1.00
46044;PMS7003;31781;54.094;13.428;2023-07-31T10:56:28;1.00;1.00;1.00
46044;PMS7003;31781;54.094;13.428;2023-07-31T10:58:41;0.75;0.75;0.75
46044;PMS7003;31781;54.094;13.428;2023-07-31T11:00:45;1.00;1.00;1.00
46044;PMS7003;31781;54.094;13.428;2023-07-31T11:02:57;1.00;1.00;1.00
46044;PMS7003;31781;54.094;13.428;2023-07-31T11:05:06;2.75;1.25;1.00
46044;PMS7003;31781;54.094;13.428;2023-07-31T11:07:09;1.00;1.00;1.00
46044;PMS7003;31781;54.094;13.428;2023-07-31T11:09:11;1.00;1.00;1.00
46044;PMS7003;31781;54.094;13.428;2023-07-31T11:11:15;1.00;1.00;1.00
46044;PMS7003;31781;54.094;13.428;2023-07-31T11:13:19;1.00;1.00;0.25
46044;PMS7003;31781;54.094;13.428;2023-07-31T11:15:22;0.75;0.75;0.50
46044;PMS7003;31781;54.094;13.428;2023-07-31T11:17:24;0.75;0.75;0.00
46044;PMS7003;31781;54.094;13.428;2023-07-31T11:19:26;0.00;0.00;0.00
46044;PMS7003;31781;54.094;13.428;2023-07-31T11:21:28;0.50;0.50;0.50
46044;PMS7003;31781;54.094;13.428;2023-07-31T11:23:30;1.00;1.00;1.00
46044;PMS7003;31781;54.094;13.428;2023-07-31T11:25:34;1.00;1.00;1.00
46044;PMS7003;31781;54.094;13.428;2023-07-31T11:27:38;0.00;0.00;0.00
46044;PMS7003;31781;54.094;13.428;2023-07-31T11:29:40;0.50;0.50;0.00
46044;PMS7003;31781;54.094;13.428;2023-07-31T11:31:43;1.00;1.00;1.00
46044;PMS7003;31781;54.094;13.428;2023-07-31T11:33:45;1.00;1.00;1.00
46044;PMS7003;31781;54.094;13.428;2023-07-31T11:35:47;2.00;2.00;1.50
46044;PMS7003;31781;54.094;13.428;2023-07-31T11:37:50;4.00;1.00;1.00
46044;PMS7003;31781;54.094;13.428;2023-07-31T11:42:12;1.00;1.00;1.00
46044;PMS7003;31781;54.094;13.428;2023-07-31T11:44:17;1.00;1.00;0.00
46044;PMS7003;31781;54.094;13.428;2023-07-31T11:46:29;1.00;1.00;1.00
46044;PMS7003;31781;54.094;13.428;2023-07-31T11:48:33;1.00;1.00;1.00
46044;PMS7003;31781;54.094;13.428;2023-07-31T11:50:36;1.25;1.00;1.00